Aviation Digital Data Service (ADDS)

Output produced by METARs form (0423 UTC 11 February 2016)
found at http://www.aviationweather.gov/adds/metars/
 
KLNS 110353Z AUTO 27009KT 10SM FEW120 M06/M12 A2985 RMK AO2 SLP113 T10611122
KLNS 110408Z 1104/1124 27009KT P6SM FEW120 
     FM110900 29012KT P6SM SCT250